Time;durP1;ratioP1;P1;durP2;ratioP2;P2;SDS_P1;SDS_P2;PMS_P1;PMS_P2;Temp;Humidity;BMP_temperature;BMP_pressure;BME280_temperature;BME280_humidity;BME280_pressure;Samples;Min_cycle;Max_cycle;Signal;HPM_P1;HPM_P2
2023/06/28 00:01:30;;;;;;;1.88;1.23;;;;;;;21.53;42.73;97403.78;6063874;23;20308;-84
2023/06/28 00:03:56;;;;;;;2.78;1.40;;;;;;;21.51;43.18;97407.50;6118698;23;20323;-83
2023/06/28 00:06:21;;;;;;;1.75;1.20;;;;;;;21.28;43.18;97390.16;6035630;23;20220;-84
2023/06/28 00:08:47;;;;;;;2.15;1.65;;;;;;;21.35;43.87;97413.53;6070827;23;20193;-83
2023/06/28 00:11:12;;;;;;;2.08;1.23;;;;;;;21.25;43.81;97404.00;6047428;23;20083;-83
2023/06/28 00:13:38;;;;;;;1.92;1.20;;;;;;;21.27;44.25;97415.09;6063948;23;20453;-84
2023/06/28 00:16:03;;;;;;;1.95;1.38;;;;;;;21.20;44.49;97404.94;6017318;23;20099;-84
2023/06/28 00:18:30;;;;;;;2.25;1.30;;;;;;;21.22;44.42;97416.00;6099514;23;20293;-84
2023/06/28 00:20:56;;;;;;;2.10;1.20;;;;;;;21.02;44.71;97401.44;6075107;23;20181;-83
2023/06/28 00:23:21;;;;;;;2.90;1.23;;;;;;;21.11;44.21;97415.50;6070329;23;20199;-84
2023/06/28 00:25:47;;;;;;;1.50;1.20;;;;;;;21.06;43.90;97397.13;6018643;23;20620;-84
2023/06/28 00:28:14;;;;;;;1.50;1.40;;;;;;;21.05;44.34;97394.78;6054722;23;20277;-84
2023/06/28 00:30:39;;;;;;;2.63;1.60;;;;;;;21.19;44.63;97421.13;6052879;23;20150;-84
2023/06/28 00:33:04;;;;;;;2.10;1.70;;;;;;;21.07;44.57;97397.88;6019405;23;20301;-84
2023/06/28 00:35:30;;;;;;;2.00;1.10;;;;;;;20.97;44.37;97388.34;6095655;23;20174;-83
2023/06/28 00:37:55;;;;;;;2.15;1.42;;;;;;;21.07;44.73;97419.06;6076719;23;20009;-84
2023/06/28 00:40:21;;;;;;;1.48;1.38;;;;;;;21.05;44.32;97408.00;5997412;23;20248;-83
2023/06/28 00:42:46;;;;;;;1.98;1.58;;;;;;;21.05;44.88;97411.44;5922407;23;20222;-84
2023/06/28 00:45:13;;;;;;;2.28;1.73;;;;;;;20.96;44.54;97394.75;5926224;23;20182;-82
2023/06/28 00:47:38;;;;;;;5.40;1.42;;;;;;;20.94;44.67;97407.50;5901222;23;20265;-84
2023/06/28 00:50:04;;;;;;;2.85;1.48;;;;;;;20.99;44.61;97407.38;6006809;23;20371;-84
2023/06/28 00:52:30;;;;;;;2.13;1.10;;;;;;;20.98;44.65;97411.09;5928414;23;20328;-83
2023/06/28 00:54:56;;;;;;;2.00;1.33;;;;;;;20.94;44.67;97408.28;6050227;23;20310;-84
2023/06/28 00:57:22;;;;;;;2.20;1.45;;;;;;;20.91;44.29;97414.19;5978847;23;20077;-84
2023/06/28 00:59:48;;;;;;;2.17;1.40;;;;;;;20.79;44.76;97397.34;5984637;23;20186;-83
2023/06/28 01:02:13;;;;;;;1.27;1.17;;;;;;;20.80;44.79;97393.59;5966554;23;20447;-84
2023/06/28 01:04:40;;;;;;;2.75;1.40;;;;;;;20.75;44.87;97395.28;5926974;23;20211;-84
2023/06/28 01:07:08;;;;;;;1.98;1.23;;;;;;;20.79;45.62;97405.28;5928715;23;20257;-84
2023/06/28 01:09:36;;;;;;;1.77;1.40;;;;;;;20.79;45.16;97407.91;5941031;23;20356;-83
2023/06/28 01:12:02;;;;;;;1.40;1.30;;;;;;;20.71;45.91;97406.78;5932309;23;20216;-83
2023/06/28 01:14:31;;;;;;;1.80;1.50;;;;;;;20.80;46.85;97420.06;5910569;23;20026;-84
2023/06/28 01:16:56;;;;;;;3.42;1.90;;;;;;;20.52;46.89;97393.75;5974189;23;20007;-82
2023/06/28 01:19:24;;;;;;;2.53;1.50;;;;;;;20.61;47.27;97412.31;5978612;23;20211;-84
2023/06/28 01:21:51;;;;;;;3.40;1.60;;;;;;;20.45;47.73;97403.97;5905166;23;20260;-83
2023/06/28 01:24:21;;;;;;;3.42;1.63;;;;;;;20.53;48.09;97416.47;5972915;23;20170;-84
2023/06/28 01:26:52;;;;;;;1.98;1.55;;;;;;;20.61;48.45;97423.66;5973603;23;20402;-84
2023/06/28 01:29:21;;;;;;;3.75;1.70;;;;;;;20.35;47.36;97402.38;5966571;23;20234;-84
2023/06/28 01:31:55;;;;;;;2.00;1.50;;;;;;;20.57;46.82;97428.00;6006243;23;20236;-83
2023/06/28 01:34:22;;;;;;;2.03;1.30;;;;;;;20.40;47.17;97416.22;5923251;23;20388;-83
2023/06/28 01:36:49;;;;;;;3.70;1.40;;;;;;;20.53;46.82;97427.84;5916054;23;20190;-84
2023/06/28 01:39:18;;;;;;;1.88;1.70;;;;;;;20.48;45.88;97433.25;5896341;23;20304;-84
2023/06/28 01:41:45;;;;;;;3.60;1.70;;;;;;;20.35;46.04;97415.59;5968893;23;20198;-82
2023/06/28 01:44:11;;;;;;;1.92;1.45;;;;;;;20.28;45.84;97405.44;5976567;23;20202;-83
2023/06/28 01:46:36;;;;;;;3.65;1.83;;;;;;;20.39;46.14;97427.91;5961983;23;20411;-83
2023/06/28 01:49:02;;;;;;;4.40;1.83;;;;;;;20.21;45.30;97405.06;5937833;23;20255;-84
2023/06/28 01:51:28;;;;;;;3.03;1.67;;;;;;;20.25;45.51;97407.91;5953269;23;20128;-83
2023/06/28 01:53:53;;;;;;;3.42;1.80;;;;;;;20.34;45.25;97433.31;5989186;23;20013;-82
2023/06/28 01:56:19;;;;;;;4.20;1.40;;;;;;;20.37;45.52;97435.38;5976863;23;20190;-84
2023/06/28 01:58:44;;;;;;;2.83;1.60;;;;;;;20.42;45.57;97438.97;5920858;23;20295;-83
2023/06/28 02:01:10;;;;;;;2.35;1.70;;;;;;;20.32;45.39;97406.41;6002170;23;20255;-83
2023/06/28 02:03:35;;;;;;;3.42;1.80;;;;;;;20.42;45.59;97431.03;5935064;23;20385;-83
2023/06/28 02:06:01;;;;;;;1.85;1.30;;;;;;;20.47;45.50;97428.25;6061117;23;20157;-83
2023/06/28 02:08:26;;;;;;;2.85;1.65;;;;;;;20.42;45.73;97415.16;6040707;23;20026;-83
2023/06/28 02:10:52;;;;;;;2.53;1.70;;;;;;;20.35;45.81;97395.19;6138495;22;20915;-83
2023/06/28 02:13:18;;;;;;;2.40;1.40;;;;;;;20.54;46.27;97426.72;6202130;22;20684;-83
2023/06/28 02:15:43;;;;;;;2.42;1.58;;;;;;;20.23;45.94;97384.41;6192071;22;20228;-84
2023/06/28 02:25:48;;;;;;;1.55;1.35;;;;;;;20.33;46.49;97421.16;6145333;23;20268;-84
2023/06/28 02:28:14;;;;;;;2.53;1.35;;;;;;;20.25;46.18;97413.97;6093716;23;20269;-85
2023/06/28 02:30:39;;;;;;;1.83;1.50;;;;;;;20.27;46.34;97414.47;6117910;23;20169;-85
2023/06/28 02:33:05;;;;;;;1.30;1.17;;;;;;;20.23;46.66;97416.13;6068895;23;20020;-85
2023/06/28 02:35:31;;;;;;;1.60;1.50;;;;;;;19.95;46.48;97387.19;6069103;23;20180;-85
2023/06/28 02:37:56;;;;;;;1.30;1.20;;;;;;;19.99;47.26;97400.56;6070152;23;20159;-85
2023/06/28 02:40:24;;;;;;;1.77;1.60;;;;;;;20.06;46.58;97413.38;6092465;23;20235;-84
2023/06/28 02:42:50;;;;;;;1.70;1.60;;;;;;;20.01;46.84;97404.50;6128243;23;20295;-85
2023/06/28 02:45:16;;;;;;;2.17;1.38;;;;;;;19.89;47.02;97382.31;6095924;23;20052;-85
2023/06/28 02:47:41;;;;;;;2.47;1.45;;;;;;;20.08;47.22;97411.19;6094761;23;20334;-85
2023/06/28 02:50:07;;;;;;;1.90;1.55;;;;;;;19.91;47.81;97391.50;6052156;23;20184;-84
2023/06/28 02:52:33;;;;;;;1.85;1.30;;;;;;;20.06;48.10;97419.44;6081465;23;20277;-85
2023/06/28 02:54:58;;;;;;;2.63;1.50;;;;;;;19.97;48.07;97395.56;6090096;23;20315;-85
2023/06/28 02:57:24;;;;;;;2.75;1.52;;;;;;;19.92;47.43;97398.34;6092558;23;20259;-84
2023/06/28 02:59:50;;;;;;;2.58;1.40;;;;;;;19.97;48.28;97400.88;6094250;23;20227;-84
2023/06/28 03:02:16;;;;;;;1.77;1.42;;;;;;;19.83;47.92;97379.00;6167322;22;20068;-84
2023/06/28 03:04:41;;;;;;;4.22;1.88;;;;;;;19.94;47.61;97405.97;6155343;22;20053;-84
2023/06/28 03:09:56;;;;;;;4.28;1.45;;;;;;;19.95;47.69;97407.53;6247526;22;20337;-83
2023/06/28 03:12:22;;;;;;;1.92;1.67;;;;;;;19.92;47.88;97402.84;6159600;22;20347;-85
2023/06/28 03:19:57;;;;;;;2.85;1.55;;;;;;;19.94;48.27;97409.38;6260489;22;20093;-85
2023/06/28 03:22:23;;;;;;;2.40;1.58;;;;;;;19.77;48.62;97390.75;6159713;22;20252;-84
2023/06/28 03:24:48;;;;;;;2.03;1.60;;;;;;;19.82;48.56;97403.84;6179795;22;20140;-84
2023/06/28 03:27:14;;;;;;;2.72;1.70;;;;;;;19.77;49.01;97393.41;6152711;22;20177;-84
2023/06/28 03:29:40;;;;;;;3.17;1.77;;;;;;;19.72;48.78;97396.13;6209358;22;20226;-84
2023/06/28 03:32:06;;;;;;;2.92;1.50;;;;;;;19.91;48.67;97415.28;6150536;22;20208;-84
2023/06/28 03:34:32;;;;;;;1.88;1.65;;;;;;;19.68;48.98;97381.97;6151563;22;20207;-84
2023/06/28 03:36:58;;;;;;;1.52;1.30;;;;;;;19.75;48.34;97396.34;6185468;22;20087;-84
2023/06/28 03:39:24;;;;;;;2.35;1.63;;;;;;;19.62;48.08;97376.00;6206271;22;20324;-85
2023/06/28 03:41:50;;;;;;;2.60;1.58;;;;;;;19.74;48.35;97392.16;6144185;22;20282;-84
2023/06/28 03:44:15;;;;;;;2.58;1.30;;;;;;;19.70;48.12;97390.38;6166983;22;20162;-84
2023/06/28 03:46:40;;;;;;;1.98;1.50;;;;;;;19.60;48.37;97364.94;6133433;22;20354;-84
2023/06/28 03:49:06;;;;;;;1.50;1.40;;;;;;;19.83;48.27;97400.91;6158556;22;20192;-84
2023/06/28 03:51:32;;;;;;;3.63;1.70;;;;;;;19.88;48.37;97397.38;6159231;22;20241;-85
2023/06/28 03:53:57;;;;;;;2.35;1.60;;;;;;;20.04;48.60;97415.53;6154676;22;20181;-84
2023/06/28 03:56:23;;;;;;;3.17;1.80;;;;;;;19.77;49.43;97385.47;6134056;22;20126;-84
2023/06/28 03:58:50;;;;;;;1.98;1.60;;;;;;;19.73;49.16;97384.50;6129105;22;20193;-84
2023/06/28 04:01:16;;;;;;;2.17;1.60;;;;;;;19.80;49.66;97412.06;6170661;22;20244;-83
2023/06/28 04:03:41;;;;;;;1.73;1.60;;;;;;;19.68;49.61;97392.53;6139717;23;20317;-84
2023/06/28 04:06:07;;;;;;;2.88;1.83;;;;;;;19.51;50.04;97380.72;6154594;23;20369;-84
2023/06/28 04:08:32;;;;;;;2.17;1.70;;;;;;;19.62;49.58;97397.91;6147182;22;20104;-83
2023/06/28 04:10:58;;;;;;;3.15;1.70;;;;;;;19.63;49.53;97396.81;6148333;22;20120;-84
2023/06/28 04:13:25;;;;;;;2.05;1.50;;;;;;;19.51;49.54;97385.22;6093949;23;20275;-83
2023/06/28 04:15:52;;;;;;;2.42;1.45;;;;;;;19.76;49.44;97411.13;6094353;23;20205;-84
2023/06/28 04:18:18;;;;;;;1.65;1.42;;;;;;;19.60;49.86;97394.81;6092686;23;20609;-84
2023/06/28 04:20:43;;;;;;;2.30;2.00;;;;;;;19.57;49.65;97374.25;6140975;23;20291;-84
2023/06/28 04:23:09;;;;;;;2.25;2.05;;;;;;;19.63;49.92;97391.53;6087186;23;20443;-84
2023/06/28 04:25:34;;;;;;;2.90;1.83;;;;;;;19.59;49.92;97387.16;6111768;23;20016;-85
2023/06/28 04:28:00;;;;;;;2.03;1.67;;;;;;;19.62;50.15;97384.72;6116038;23;20148;-84
2023/06/28 04:30:25;;;;;;;3.25;1.80;;;;;;;19.84;50.01;97412.25;6089730;23;20252;-84
2023/06/28 04:32:51;;;;;;;1.67;1.58;;;;;;;19.62;50.78;97378.63;6125450;23;20113;-84
2023/06/28 04:35:17;;;;;;;1.95;1.70;;;;;;;19.77;50.31;97402.09;6119153;23;20148;-84
2023/06/28 04:40:17;;;;;;;2.58;2.00;;;;;;;19.73;50.15;97392.41;6274717;22;20011;-83
2023/06/28 04:42:44;;;;;;;3.83;2.35;;;;;;;19.88;50.19;97402.66;6089974;23;20212;-83
2023/06/28 04:45:11;;;;;;;2.63;1.90;;;;;;;19.87;50.12;97395.81;6097149;23;20072;-83
2023/06/28 04:52:47;;;;;;;2.58;1.95;;;;;;;19.87;50.34;97379.97;6114573;22;20070;-83
2023/06/28 04:57:48;;;;;;;4.28;2.28;;;;;;;19.98;50.58;97402.44;6271390;22;20193;-84
2023/06/28 05:00:13;;;;;;;2.58;2.20;;;;;;;19.81;50.10;97389.88;6160447;22;20112;-82
2023/06/28 05:05:14;;;;;;;2.67;2.40;;;;;;;19.86;50.16;97391.63;6263554;22;20033;-83
2023/06/28 05:07:40;;;;;;;2.30;1.67;;;;;;;20.04;49.98;97405.75;6210285;22;20019;-85
2023/06/28 05:12:41;;;;;;;4.82;1.92;;;;;;;19.96;50.23;97372.09;6267806;22;20016;-83
2023/06/28 05:15:07;;;;;;;2.45;2.17;;;;;;;20.24;50.76;97412.41;6200154;22;20203;-85
2023/06/28 05:17:33;;;;;;;2.65;1.70;;;;;;;20.29;50.16;97403.56;6217495;22;20015;-82
2023/06/28 05:25:09;;;;;;;2.10;1.90;;;;;;;20.42;48.76;97388.72;6239037;22;20294;-84
2023/06/28 05:27:34;;;;;;;1.80;1.65;;;;;;;20.49;47.91;97394.34;6176518;22;20243;-84
2023/06/28 05:30:00;;;;;;;3.20;2.08;;;;;;;20.72;47.97;97419.72;6177989;22;20197;-84
2023/06/28 05:32:25;;;;;;;4.00;1.77;;;;;;;20.62;48.04;97398.81;6160538;22;20178;-85
2023/06/28 05:58:06;;;;;;;2.63;1.65;;;;;;;21.08;47.89;97404.75;6253269;22;21383;-85
2023/06/28 06:08:17;;;;;;;2.13;1.80;;;;;;;21.09;45.45;97396.47;6101532;22;19961;-85
2023/06/28 06:10:42;;;;;;;3.15;1.90;;;;;;;21.20;45.89;97415.53;6141026;22;20152;-85
2023/06/28 06:13:09;;;;;;;2.38;1.60;;;;;;;21.26;46.02;97418.81;6151695;22;20231;-86
2023/06/28 06:15:34;;;;;;;2.38;1.70;;;;;;;21.21;46.42;97406.47;6149890;22;20013;-86
2023/06/28 06:18:00;;;;;;;3.85;2.20;;;;;;;21.04;45.95;97383.41;6150295;22;20178;-85
2023/06/28 06:22:55;;;;;;;5.07;2.45;;;;;;;21.13;46.55;97409.91;6197483;22;19968;-87
2023/06/28 06:25:21;;;;;;;4.72;2.20;;;;;;;21.35;46.68;97434.72;6162393;22;20212;-86
2023/06/28 06:27:46;;;;;;;2.40;2.10;;;;;;;21.54;47.02;97434.47;6148369;22;20019;-86
2023/06/28 06:30:13;;;;;;;4.93;2.15;;;;;;;21.69;47.04;97442.78;6141145;22;20255;-86
2023/06/28 06:32:39;;;;;;;4.63;1.95;;;;;;;21.58;47.12;97417.66;6157427;22;20255;-85
2023/06/28 06:35:06;;;;;;;3.10;1.98;;;;;;;21.73;46.36;97424.38;6130251;22;20239;-84
2023/06/28 06:37:32;;;;;;;2.63;1.70;;;;;;;22.13;45.73;97434.81;6150074;22;20201;-84
2023/06/28 06:39:57;;;;;;;3.13;1.95;;;;;;;22.13;44.34;97442.00;6164879;22;20649;-84
2023/06/28 06:42:23;;;;;;;3.50;2.05;;;;;;;22.17;43.95;97442.94;6127016;22;20295;-83
2023/06/28 06:44:48;;;;;;;3.88;2.10;;;;;;;22.26;43.89;97419.84;6129700;22;20242;-85
2023/06/28 06:47:14;;;;;;;2.72;2.42;;;;;;;22.52;43.19;97432.31;6161934;22;20516;-86
2023/06/28 06:49:39;;;;;;;3.88;2.38;;;;;;;22.65;43.27;97435.84;6156046;22;20066;-84
2023/06/28 06:52:05;;;;;;;3.30;2.30;;;;;;;22.55;43.32;97411.22;6131160;22;20329;-85
2023/06/28 06:54:31;;;;;;;4.05;2.05;;;;;;;22.80;44.11;97430.81;6166450;22;20459;-84
2023/06/28 06:56:58;;;;;;;4.28;2.47;;;;;;;22.84;43.50;97430.94;6190490;22;20138;-86
2023/06/28 06:59:23;;;;;;;2.83;2.30;;;;;;;22.96;43.44;97446.22;6151493;22;20326;-84
2023/06/28 07:04:21;;;;;;;3.75;2.20;;;;;;;22.90;43.20;97424.38;6128081;23;20483;-85
2023/06/28 07:06:47;;;;;;;3.45;2.55;;;;;;;23.13;42.40;97445.38;6084371;23;20354;-85
2023/06/28 07:09:17;;;;;;;3.25;2.15;;;;;;;23.32;42.31;97456.41;6107589;23;20005;-84
2023/06/28 07:11:43;;;;;;;3.00;2.22;;;;;;;23.43;42.31;97453.38;6108988;23;20287;-85
2023/06/28 07:14:09;;;;;;;3.17;2.17;;;;;;;23.28;41.80;97436.09;6109972;23;20181;-84
2023/06/28 07:16:35;;;;;;;5.85;2.35;;;;;;;23.58;40.99;97450.16;6052859;23;20349;-83
2023/06/28 07:19:05;;;;;;;3.13;2.20;;;;;;;23.71;40.93;97405.81;6079313;23;20201;-82
2023/06/28 07:21:31;;;;;;;3.55;2.55;;;;;;;23.70;40.28;97402.38;6071550;23;20186;-85
2023/06/28 07:23:57;;;;;;;2.90;2.55;;;;;;;23.95;40.37;97405.16;6057499;23;20146;-84
2023/06/28 07:26:22;;;;;;;3.50;2.08;;;;;;;24.35;39.31;97420.63;6050053;23;20004;-84
2023/06/28 07:28:50;;;;;;;3.78;2.53;;;;;;;24.44;39.43;97442.59;6071730;23;20266;-83
2023/06/28 07:31:15;;;;;;;3.63;2.10;;;;;;;24.36;39.80;97403.53;6122773;22;20178;-84
2023/06/28 07:33:41;;;;;;;3.78;2.30;;;;;;;24.56;39.42;97422.47;6121201;23;20330;-84
2023/06/28 07:36:06;;;;;;;3.08;2.10;;;;;;;24.55;38.69;97427.00;6126190;22;20208;-84
2023/06/28 07:38:32;;;;;;;3.78;2.10;;;;;;;24.11;39.63;97442.59;6140096;23;20147;-83
2023/06/28 07:43:34;;;;;;;2.97;2.25;;;;;;;24.00;39.86;97404.97;6242450;22;20194;-83
2023/06/28 07:48:34;;;;;;;4.95;2.53;;;;;;;24.27;39.58;97440.88;6229367;22;20320;-82
2023/06/28 07:51:00;;;;;;;3.30;1.98;;;;;;;24.07;39.81;97402.56;6131054;22;20519;-85
2023/06/28 07:53:25;;;;;;;2.42;1.95;;;;;;;24.26;40.05;97414.59;6136086;22;20184;-84
2023/06/28 07:55:51;;;;;;;2.67;1.95;;;;;;;24.34;39.88;97413.75;6192128;22;20015;-81
2023/06/28 07:58:17;;;;;;;2.63;1.67;;;;;;;24.51;38.91;97426.09;6167406;22;20054;-82
2023/06/28 08:00:42;;;;;;;3.03;1.98;;;;;;;24.37;38.30;97406.97;6165091;22;20034;-81
2023/06/28 08:03:08;;;;;;;4.07;1.90;;;;;;;24.48;38.42;97400.91;6165416;22;20014;-82
2023/06/28 08:05:34;;;;;;;3.08;1.90;;;;;;;24.70;38.54;97414.19;6139576;22;20008;-83
2023/06/28 08:07:59;;;;;;;5.32;2.13;;;;;;;24.96;38.87;97405.88;6152336;23;20154;-83
2023/06/28 08:10:25;;;;;;;4.10;2.20;;;;;;;25.10;36.54;97390.31;6161127;23;20422;-83
2023/06/28 08:12:51;;;;;;;2.75;1.70;;;;;;;25.63;36.45;97418.94;6149103;23;20377;-83
2023/06/28 08:15:18;;;;;;;1.70;1.55;;;;;;;25.65;35.85;97417.47;6126239;23;20253;-83
2023/06/28 08:17:47;;;;;;;2.38;1.60;;;;;;;25.51;35.80;97393.84;6122385;22;20214;-82
2023/06/28 08:20:12;;;;;;;4.70;2.40;;;;;;;25.75;35.24;97394.91;6114230;23;20302;-82
2023/06/28 08:22:38;;;;;;;2.25;1.77;;;;;;;25.72;35.76;97390.22;6089614;23;20152;-82
2023/06/28 08:25:04;;;;;;;3.63;2.25;;;;;;;26.11;34.79;97412.69;6104132;23;20310;-84
2023/06/28 08:27:29;;;;;;;2.60;2.05;;;;;;;26.05;35.24;97402.63;6123434;23;20240;-83
2023/06/28 08:29:55;;;;;;;3.30;2.40;;;;;;;25.81;34.66;97393.56;6088426;23;20303;-81
2023/06/28 08:32:20;;;;;;;2.95;2.13;;;;;;;25.74;35.64;97388.03;6088680;23;20043;-84
2023/06/28 08:34:46;;;;;;;3.05;2.05;;;;;;;25.92;35.69;97391.94;6100798;23;20090;-82
2023/06/28 08:37:12;;;;;;;4.60;2.30;;;;;;;25.92;35.05;97407.94;6091818;23;20340;-82
2023/06/28 08:39:38;;;;;;;2.58;1.52;;;;;;;26.27;34.58;97418.06;6093530;23;20149;-82
2023/06/28 08:42:04;;;;;;;2.78;1.67;;;;;;;26.57;34.92;97423.00;6118702;23;20219;-85
2023/06/28 08:44:32;;;;;;;1.75;1.50;;;;;;;26.50;32.35;97415.59;6098597;23;20186;-83
2023/06/28 08:46:58;;;;;;;3.15;1.80;;;;;;;26.22;33.34;97396.16;6073788;23;20367;-83
2023/06/28 08:49:24;;;;;;;2.80;1.70;;;;;;;26.31;33.40;97426.94;6104532;23;20238;-83
2023/06/28 08:51:49;;;;;;;2.58;1.52;;;;;;;26.19;33.26;97428.91;6079690;23;20285;-82
2023/06/28 08:54:15;;;;;;;3.17;2.15;;;;;;;25.96;33.35;97418.75;6113316;23;20354;-83
2023/06/28 08:56:41;;;;;;;2.35;1.83;;;;;;;25.50;34.93;97400.31;6069542;23;20426;-82
2023/06/28 08:59:09;;;;;;;2.75;1.70;;;;;;;25.70;34.70;97414.56;6068330;23;20266;-84
2023/06/28 09:01:35;;;;;;;4.53;1.90;;;;;;;25.68;34.58;97413.38;6074890;23;20191;-83
2023/06/28 09:04:04;;;;;;;4.60;1.73;;;;;;;25.75;34.88;97417.00;6113750;23;20319;-82
2023/06/28 09:06:30;;;;;;;1.70;1.60;;;;;;;25.87;34.28;97420.75;6098302;23;20164;-84
2023/06/28 09:08:55;;;;;;;2.97;1.92;;;;;;;25.89;34.05;97416.66;6101211;23;20081;-83
2023/06/28 09:11:21;;;;;;;2.28;1.80;;;;;;;25.67;34.57;97403.81;6101427;23;20330;-83
2023/06/28 09:13:47;;;;;;;4.80;1.90;;;;;;;25.65;35.58;97409.47;6098985;23;20163;-83
2023/06/28 09:16:13;;;;;;;1.85;1.58;;;;;;;25.82;34.74;97399.66;6065475;23;20236;-83
2023/06/28 09:18:38;;;;;;;2.10;1.75;;;;;;;26.01;33.72;97412.41;6106617;23;20330;-84
2023/06/28 09:21:04;;;;;;;2.03;1.67;;;;;;;26.10;34.10;97402.38;6101861;23;20253;-84
2023/06/28 09:23:33;;;;;;;3.22;2.30;;;;;;;26.24;33.19;97386.72;6068434;23;20286;-84
2023/06/28 09:25:58;;;;;;;3.10;1.48;;;;;;;26.20;32.95;97383.19;6118478;23;20055;-83
2023/06/28 09:28:34;;;;;;;2.38;1.45;;;;;;;26.41;33.65;97408.84;6106428;23;20123;-86
2023/06/28 09:31:00;;;;;;;2.17;1.90;;;;;;;26.48;32.98;97409.06;6100411;23;20335;-83
2023/06/28 09:33:26;;;;;;;3.22;2.00;;;;;;;26.03;33.36;97402.16;6064519;23;20263;-82
2023/06/28 09:35:56;;;;;;;2.00;1.50;;;;;;;26.20;33.03;97374.38;6104456;23;20192;-83
2023/06/28 09:38:22;;;;;;;2.85;1.67;;;;;;;26.63;33.32;97383.50;6069912;23;20141;-83
2023/06/28 09:40:55;;;;;;;3.42;1.83;;;;;;;27.05;33.24;97373.03;6122713;23;20103;-83
2023/06/28 09:43:22;;;;;;;2.05;1.40;;;;;;;27.21;31.87;97394.41;6141028;23;20235;-83
2023/06/28 09:45:47;;;;;;;2.90;1.67;;;;;;;27.31;32.71;97397.69;6122653;23;20144;-83
2023/06/28 09:48:13;;;;;;;3.08;2.15;;;;;;;27.66;30.86;97400.34;6075565;23;20062;-84
2023/06/28 09:50:38;;;;;;;3.13;1.95;;;;;;;27.64;31.01;97400.69;6100624;23;20339;-82
2023/06/28 09:53:19;;;;;;;2.55;1.95;;;;;;;27.38;31.78;97411.19;6152440;23;20253;-83
2023/06/28 09:55:45;;;;;;;2.15;2.00;;;;;;;27.24;32.09;97411.63;6079584;23;20243;-83
2023/06/28 09:58:23;;;;;;;2.67;2.25;;;;;;;26.78;33.12;97411.34;6127567;23;20334;-84
2023/06/28 10:00:49;;;;;;;2.45;1.75;;;;;;;26.76;32.44;97421.59;6104480;23;20179;-84
2023/06/28 10:03:16;;;;;;;3.13;1.80;;;;;;;26.34;33.30;97399.56;6082623;23;20412;-85
2023/06/28 10:05:43;;;;;;;3.42;1.63;;;;;;;26.66;33.10;97412.19;6072660;23;20231;-85
2023/06/28 10:08:09;;;;;;;3.80;2.20;;;;;;;26.74;32.38;97411.25;6155406;23;20353;-83
2023/06/28 10:10:36;;;;;;;3.28;2.00;;;;;;;26.50;33.31;97390.78;6127694;23;20385;-83
2023/06/28 10:13:03;;;;;;;2.88;1.75;;;;;;;26.61;33.24;97413.19;6138565;23;20329;-83
2023/06/28 10:15:35;;;;;;;2.55;2.20;;;;;;;26.64;32.99;97417.88;6074635;23;20009;-84
2023/06/28 10:18:01;;;;;;;3.78;1.88;;;;;;;26.57;31.31;97423.00;6124590;23;20269;-83
2023/06/28 10:20:27;;;;;;;2.05;1.88;;;;;;;26.29;31.41;97391.81;6102250;23;20187;-84
2023/06/28 10:22:54;;;;;;;4.22;2.17;;;;;;;26.20;31.86;97385.84;6076191;23;20270;-83
2023/06/28 10:25:22;;;;;;;2.03;1.77;;;;;;;26.27;32.29;97423.41;6072666;23;20204;-85
2023/06/28 10:27:47;;;;;;;2.60;1.80;;;;;;;25.58;33.56;97394.06;6095024;23;20214;-83
2023/06/28 10:30:13;;;;;;;5.28;2.13;;;;;;;25.56;34.74;97404.28;6069043;23;20004;-83
2023/06/28 10:32:39;;;;;;;2.90;1.80;;;;;;;25.92;33.80;97421.28;6100791;23;20239;-84
2023/06/28 10:35:07;;;;;;;1.92;1.70;;;;;;;26.11;32.84;97417.25;6100529;23;20352;-83
2023/06/28 10:37:32;;;;;;;3.88;2.10;;;;;;;26.01;33.04;97412.41;6102450;23;20175;-83
2023/06/28 10:39:58;;;;;;;2.88;1.73;;;;;;;25.97;32.66;97397.06;6096633;23;20380;-83
2023/06/28 10:42:23;;;;;;;3.63;1.92;;;;;;;25.63;33.81;97387.69;6093513;23;20370;-84
2023/06/28 10:44:54;;;;;;;2.70;1.55;;;;;;;25.92;33.80;97421.28;6069168;23;20344;-84
2023/06/28 10:47:19;;;;;;;2.20;2.00;;;;;;;25.94;32.94;97412.94;6119262;23;20240;-82
2023/06/28 10:50:04;;;;;;;3.22;1.95;;;;;;;25.95;34.40;97425.97;6068136;23;20413;-83
2023/06/28 10:52:32;;;;;;;2.33;1.85;;;;;;;26.01;34.47;97429.16;6092418;23;20189;-83
2023/06/28 10:54:57;;;;;;;3.05;1.90;;;;;;;26.18;33.37;97428.09;6119125;23;20082;-84
2023/06/28 10:57:39;;;;;;;5.15;1.90;;;;;;;26.06;33.86;97420.16;6099092;23;20144;-83
2023/06/28 11:00:09;;;;;;;3.08;2.08;;;;;;;25.91;34.68;97409.06;6089592;23;20191;-82
2023/06/28 11:02:51;;;;;;;3.72;1.80;;;;;;;26.13;33.75;97409.66;6123187;23;20212;-87
2023/06/28 11:05:45;;;;;;;2.80;1.80;;;;;;;26.20;33.54;97409.88;6103158;23;20249;-84
2023/06/28 11:08:12;;;;;;;4.22;1.90;;;;;;;26.26;33.97;97426.41;6148846;23;20213;-84
2023/06/28 11:10:39;;;;;;;5.25;2.47;;;;;;;26.22;33.80;97415.66;6104711;23;20234;-85
2023/06/28 11:13:08;;;;;;;2.83;2.08;;;;;;;26.35;33.84;97417.13;6118562;23;20050;-85
2023/06/28 11:15:45;;;;;;;3.10;1.75;;;;;;;26.36;33.81;97431.25;6112167;23;20168;-84
2023/06/28 11:18:18;;;;;;;5.47;2.10;;;;;;;26.05;35.23;97403.38;6106207;23;20073;-84
2023/06/28 11:20:57;;;;;;;3.00;2.20;;;;;;;26.33;34.08;97405.25;6080775;23;20199;-82
2023/06/28 11:23:37;;;;;;;2.40;2.20;;;;;;;26.24;33.58;97420.66;6157855;23;20204;-82
2023/06/28 11:26:05;;;;;;;2.30;2.10;;;;;;;26.39;33.37;97424.44;6133081;23;20372;-87
2023/06/28 11:28:34;;;;;;;3.22;2.47;;;;;;;26.38;33.97;97412.22;6097323;23;20175;-85
2023/06/28 11:31:19;;;;;;;3.17;2.58;;;;;;;26.66;33.39;97412.97;6073085;23;20248;-86
2023/06/28 11:33:45;;;;;;;4.60;2.00;;;;;;;26.52;33.87;97408.00;6128394;23;20188;-84
2023/06/28 11:36:12;;;;;;;2.53;2.33;;;;;;;26.15;35.20;97408.22;6117772;23;20072;-85
2023/06/28 11:38:38;;;;;;;3.08;2.08;;;;;;;26.08;34.22;97400.03;6068343;23;20116;-83
2023/06/28 11:41:04;;;;;;;2.97;2.13;;;;;;;26.18;34.51;97401.41;6115963;22;20152;-84
2023/06/28 11:43:30;;;;;;;2.33;2.08;;;;;;;26.35;34.11;97421.69;6096870;23;20343;-85
2023/06/28 11:45:55;;;;;;;3.22;2.00;;;;;;;26.43;33.67;97417.31;6104042;23;20173;-86
2023/06/28 11:48:21;;;;;;;3.75;2.15;;;;;;;26.33;34.08;97408.69;6126185;23;20364;-84
2023/06/28 11:51:00;;;;;;;3.72;2.15;;;;;;;26.58;33.02;97408.56;6097769;23;20187;-86
2023/06/28 11:53:27;;;;;;;2.60;1.88;;;;;;;26.53;34.28;97416.81;6129584;23;20329;-86
2023/06/28 11:55:55;;;;;;;3.90;1.98;;;;;;;26.83;33.24;97408.41;6094882;23;20309;-85
2023/06/28 11:58:30;;;;;;;3.00;1.92;;;;;;;27.14;32.74;97404.91;6096021;23;20333;-84
2023/06/28 12:00:56;;;;;;;2.75;1.63;;;;;;;27.20;31.80;97402.78;6098837;23;20186;-86
2023/06/28 12:03:48;;;;;;;3.88;1.98;;;;;;;27.24;32.15;97411.63;6099977;23;20473;-85
2023/06/28 12:06:13;;;;;;;3.05;1.95;;;;;;;27.23;32.37;97416.22;6142308;23;20334;-85
2023/06/28 12:08:42;;;;;;;2.58;2.03;;;;;;;27.28;31.77;97407.16;6093204;23;20193;-84
2023/06/28 12:11:14;;;;;;;2.25;1.83;;;;;;;27.44;31.60;97413.25;6159394;22;20199;-87
2023/06/28 12:13:41;;;;;;;2.53;2.10;;;;;;;27.31;31.96;97411.03;6099126;23;20268;-84
2023/06/28 12:16:16;;;;;;;2.15;1.92;;;;;;;27.21;31.89;97412.31;6097946;23;20341;-85
2023/06/28 12:18:56;;;;;;;2.95;2.13;;;;;;;27.41;30.97;97387.19;6096454;23;20332;-86
2023/06/28 12:21:23;;;;;;;4.00;2.15;;;;;;;26.98;32.54;97401.50;6120104;23;20074;-82
2023/06/28 12:23:51;;;;;;;2.63;2.10;;;;;;;27.15;32.58;97395.00;6128127;23;20406;-85
2023/06/28 12:26:22;;;;;;;1.90;1.73;;;;;;;27.16;32.53;97383.19;6160824;23;20203;-88
2023/06/28 12:28:51;;;;;;;2.75;2.50;;;;;;;27.45;31.37;97373.91;6141834;23;20157;-85
2023/06/28 12:31:17;;;;;;;2.90;2.03;;;;;;;26.89;31.81;97359.69;6135579;23;20144;-84
2023/06/28 12:33:42;;;;;;;2.20;2.00;;;;;;;27.25;30.69;97370.41;6102236;23;20292;-84
2023/06/28 12:36:18;;;;;;;2.30;2.10;;;;;;;27.37;31.94;97399.72;6098997;23;20110;-85
2023/06/28 12:38:45;;;;;;;3.03;2.00;;;;;;;27.19;31.94;97401.22;6097284;23;20413;-86
2023/06/28 12:41:14;;;;;;;1.98;1.77;;;;;;;27.65;31.18;97388.06;6133042;23;20323;-86
2023/06/28 12:43:40;;;;;;;3.25;2.42;;;;;;;27.72;31.55;97382.09;6125909;23;20198;-86
2023/06/28 12:46:06;;;;;;;3.00;1.90;;;;;;;28.01;30.74;97394.16;6095478;23;20202;-86
2023/06/28 12:48:32;;;;;;;2.55;2.28;;;;;;;27.96;30.21;97363.09;6123156;23;20403;-87
2023/06/28 12:50:57;;;;;;;3.38;2.05;;;;;;;28.17;30.30;97388.69;6166886;22;20289;-86